Pagina principale
METAR-TAF:

METAR-TAF

Aeroporti :

Aeroporto di Dušanbe

Dušanbe, Tagikistan

latitudine: 38-33N, longitudine: 068-47E, altezza: 803 m

Osservazione

Il bollettino è stato emesso 38 minuti fa, alle 21:00 UTC
Vento 4 kt da est
Temperature 13°C
Umidità 94%
Pressione 1019 hPa
Visibilità: 6000 m
Poco nuvoloso ad un'altezza di 6600 ft, Cumulonembo.
Cielo coperto ad un'altezza di 12000 ft

METAR: UTDD 202100Z 08002MPS 6000 FEW066CB OVC120 13/12 Q1019 R09/D NOSIG RMK QFE696/0927

Ora: 02:38 (21:38 UTC)

Previsione

Il bollettino è stato emesso 38 minuti fa, alle 21:00 UTC
Previsione valida dal 20 alle 22 UTC al 21 alle 10 UTC
Vento 4 kt da direzioni variabili
Visibilità: 6000 m
Nubi sparse ad un'altezza di 6000 ft, Cumulonembo.
Nuvoloso ad un'altezza di 10000 ft
Probabilità 40% :
Temporaneamente
dal 20 alle 22 UTC al 21 alle 10 UTC
temporale

TAF: UTDD 202100Z 2022/2110 VRB02MPS 6000 SCT060CB BKN100 PROB40 TEMPO 2022/2110 TS

Osservazioni e previsioni meteorologiche di più di 4000 aeroporti (messaggi METAR e TAF).

Le stazioni disponibili sono rappresentate dai dischi gialli e rossi sulla carta.

Puntare il mouse per vedere il nome della stazione.

Clicca sopra per visualizzare le osservazioni e previsioni meteorologiche.

Per cambiare la mappa : fare clic sui pulsanti verdi con una croce nera per ingrandire, il pulsante verde con un trattino per diminuire, o sulla freccia verde per le mappe adiacenti.


METAR-TAF: